Terminal Aerodrome Forecast
Issued by NWS

Home | Current Version | Previous Version | Text Only | Print | Product List | Glossary On
Versions: 1 2 3 4 5 6 7 8 9 10 11 12 13 14 15 16 17 18 19 20
000
FTUS43 KMPX 201120
TAFRNH
TAF
KRNH 201120Z 2012/2112 15003KT P6SM BKN100
     FM201600 22007KT P6SM SCT050 BKN100
     FM202200 29006KT P6SM SCT050 BKN100
     FM210200 33003KT P6SM SCT100 SCT250=

USA.gov is the U.S. government's official web portal to all federal, state and local government web resources and services.